createdAt,value
2023-03-22T00:00:15.164Z,28.92
2023-03-22T00:02:43.843Z,31.73
2023-03-22T00:05:12.309Z,30.83
2023-03-22T00:07:41.440Z,34.03
2023-03-22T00:10:12.332Z,27.83
2023-03-22T00:12:40.777Z,28.73
2023-03-22T00:15:11.144Z,27.33
2023-03-22T00:17:39.600Z,29.35
2023-03-22T00:20:09.296Z,28.73
2023-03-22T00:22:37.918Z,32.22
2023-03-22T00:25:07.414Z,32.55
2023-03-22T00:27:37.198Z,29.42
2023-03-22T00:30:06.799Z,29.63
2023-03-22T00:32:35.994Z,28.48
2023-03-22T00:35:05.167Z,29.55
2023-03-22T00:37:34.380Z,31.02
2023-03-22T00:40:03.458Z,29.63
2023-03-22T00:42:32.235Z,30.45
2023-03-22T00:45:02.020Z,29.38
2023-03-22T00:47:30.492Z,28.48
2023-03-22T00:49:58.949Z,29.48
2023-03-22T00:52:28.856Z,30.40
2023-03-22T00:54:57.542Z,31.20
2023-03-22T00:57:26.129Z,34.17
2023-03-22T00:59:55.872Z,31.00
2023-03-22T01:02:29.639Z,26.45
2023-03-22T01:04:58.051Z,28.63
2023-03-22T01:07:26.521Z,32.28
2023-03-22T01:09:55.433Z,31.25
2023-03-22T01:12:23.865Z,33.80
2023-03-22T01:14:52.319Z,30.15
2023-03-22T01:17:20.790Z,28.77
2023-03-22T01:19:50.653Z,30.45
2023-03-22T01:22:19.055Z,30.30
2023-03-22T01:24:47.459Z,32.08
2023-03-22T01:27:15.912Z,33.00
2023-03-22T01:29:44.377Z,27.70
2023-03-22T01:32:13.977Z,29.95
2023-03-22T01:34:42.380Z,28.35
2023-03-22T01:37:12.166Z,30.45
2023-03-22T01:39:40.784Z,31.30
2023-03-22T01:42:14.487Z,32.28
2023-03-22T01:44:46.942Z,32.15
2023-03-22T01:47:15.372Z,30.60
2023-03-22T01:49:44.286Z,30.63
2023-03-22T01:52:17.122Z,31.05
2023-03-22T01:54:48.802Z,31.15
2023-03-22T01:57:18.489Z,31.63
2023-03-22T01:59:50.119Z,33.38
2023-03-22T02:02:22.156Z,29.48
2023-03-22T02:04:51.266Z,28.15
2023-03-22T02:07:27.152Z,29.02
2023-03-22T02:09:55.867Z,31.77
2023-03-22T02:12:37.366Z,30.63
2023-03-22T02:15:18.680Z,30.10
2023-03-22T02:17:59.809Z,32.17
2023-03-22T02:21:27.918Z,27.25
2023-03-22T02:24:18.850Z,25.98
2023-03-22T02:27:28.663Z,25.88
2023-03-22T02:30:07.646Z,27.33
2023-03-22T02:33:05.249Z,25.52
2023-03-22T02:35:51.471Z,26.90
2023-03-22T02:38:52.854Z,27.30
2023-03-22T02:41:34.718Z,23.95
2023-03-22T02:44:12.902Z,26.45
2023-03-22T02:46:46.563Z,27.08
2023-03-22T02:49:22.958Z,29.20
2023-03-22T02:51:59.671Z,28.60
2023-03-22T02:54:35.621Z,27.77
2023-03-22T02:57:11.148Z,29.05
2023-03-22T02:59:42.882Z,31.48
2023-03-22T03:02:14.746Z,29.30
2023-03-22T03:04:47.434Z,26.13
2023-03-22T03:07:20.293Z,29.40
2023-03-22T03:09:50.070Z,27.95
2023-03-22T03:12:22.382Z,26.17
2023-03-22T03:14:50.848Z,30.25
2023-03-22T03:17:31.841Z,27.40
2023-03-22T03:20:12.784Z,25.90
2023-03-22T03:22:54.756Z,29.58
2023-03-22T03:25:28.172Z,26.83
2023-03-22T03:28:06.198Z,29.23
2023-03-22T03:30:44.597Z,31.55
2023-03-22T03:33:17.616Z,30.30
2023-03-22T03:35:50.771Z,28.63
2023-03-22T03:38:22.443Z,31.77
2023-03-22T03:40:55.414Z,30.33
2023-03-22T03:43:26.939Z,27.15
2023-03-22T03:45:56.415Z,27.33
2023-03-22T03:48:29.767Z,26.67
2023-03-22T03:50:59.143Z,27.85
2023-03-22T03:53:27.917Z,28.00
2023-03-22T03:55:56.359Z,28.80
2023-03-22T03:58:26.214Z,28.90
2023-03-22T04:00:54.665Z,27.55
2023-03-22T04:03:23.371Z,26.27
2023-03-22T04:05:51.782Z,28.85
2023-03-22T04:08:20.186Z,27.73
2023-03-22T04:10:51.759Z,28.30
2023-03-22T04:13:21.486Z,29.15
2023-03-22T04:15:55.408Z,26.98
2023-03-22T04:18:24.535Z,24.58
2023-03-22T04:20:53.645Z,28.67
2023-03-22T04:23:23.227Z,31.65
2023-03-22T04:25:51.834Z,32.75
2023-03-22T04:28:20.377Z,24.77
2023-03-22T04:30:51.030Z,28.48
2023-03-22T04:33:22.983Z,28.88
2023-03-22T04:35:56.692Z,25.52
2023-03-22T04:38:26.174Z,27.33
2023-03-22T04:40:55.359Z,26.10
2023-03-22T04:43:23.756Z,25.75
2023-03-22T04:45:54.693Z,27.75
2023-03-22T04:48:28.082Z,31.27
2023-03-22T04:50:56.635Z,28.17
2023-03-22T04:53:27.292Z,30.20
2023-03-22T04:55:57.109Z,29.25
2023-03-22T04:58:26.268Z,31.27
2023-03-22T05:00:54.986Z,27.70
2023-03-22T05:03:25.160Z,26.70
2023-03-22T05:05:55.248Z,27.17
2023-03-22T05:08:25.977Z,28.20
2023-03-22T05:10:54.641Z,27.98
2023-03-22T05:13:26.556Z,31.80
2023-03-22T05:15:55.345Z,30.77
2023-03-22T05:18:26.340Z,34.88
2023-03-22T05:20:57.065Z,27.45
2023-03-22T05:23:25.916Z,29.35
2023-03-22T05:25:55.116Z,33.08
2023-03-22T05:28:23.506Z,28.52
2023-03-22T05:30:53.117Z,28.08
2023-03-22T05:33:22.779Z,30.38
2023-03-22T05:35:52.681Z,30.25
2023-03-22T05:38:22.801Z,29.35
2023-03-22T05:40:51.343Z,31.23
2023-03-22T05:43:20.046Z,33.20
2023-03-22T05:45:49.132Z,32.17
2023-03-22T05:48:17.672Z,29.42
2023-03-22T05:50:46.231Z,30.35
2023-03-22T05:53:16.077Z,29.23
2023-03-22T05:55:44.955Z,31.98
2023-03-22T05:58:19.015Z,33.30
2023-03-22T06:00:49.559Z,33.50
2023-03-22T06:03:18.386Z,34.33
2023-03-22T06:05:50.740Z,30.15
2023-03-22T06:08:21.005Z,28.80
2023-03-22T06:10:50.995Z,31.17
2023-03-22T06:13:19.819Z,30.00
2023-03-22T06:15:48.318Z,33.80
2023-03-22T06:18:16.768Z,33.50
2023-03-22T06:20:45.155Z,31.45
2023-03-22T06:23:13.714Z,33.17
2023-03-22T06:25:43.618Z,33.22
2023-03-22T06:28:12.178Z,32.30
2023-03-22T06:30:40.960Z,32.28
2023-03-22T06:33:09.578Z,30.02
2023-03-22T06:35:38.012Z,35.10
2023-03-22T06:38:06.537Z,31.52
2023-03-22T06:40:35.791Z,35.72
2023-03-22T06:43:07.216Z,32.58
2023-03-22T06:45:36.043Z,30.60
2023-03-22T06:48:04.541Z,32.10
2023-03-22T06:50:34.052Z,31.70
2023-03-22T06:53:02.513Z,32.95
2023-03-22T06:55:33.272Z,31.08
2023-03-22T06:58:02.388Z,34.70
2023-03-22T07:00:34.260Z,34.15
2023-03-22T07:03:03.370Z,29.50
2023-03-22T07:05:32.152Z,31.38
2023-03-22T07:08:00.768Z,31.05
2023-03-22T07:10:29.285Z,32.97
2023-03-22T07:12:58.009Z,28.27
2023-03-22T07:15:26.539Z,31.98
2023-03-22T07:17:56.353Z,30.48
2023-03-22T07:20:24.754Z,29.52
2023-03-22T07:22:53.238Z,28.58
2023-03-22T07:25:21.878Z,30.00
2023-03-22T07:27:50.285Z,28.33
2023-03-22T07:30:18.829Z,30.98
2023-03-22T07:32:47.338Z,30.95
2023-03-22T07:35:18.925Z,30.70
2023-03-22T07:37:48.824Z,33.75
2023-03-22T07:40:17.408Z,30.10
2023-03-22T07:42:45.967Z,28.13
2023-03-22T07:45:14.382Z,33.42
2023-03-22T07:47:43.005Z,33.13
2023-03-22T07:50:13.271Z,31.65
2023-03-22T07:52:43.758Z,29.70
2023-03-22T07:55:13.818Z,29.55
2023-03-22T07:57:42.272Z,28.10
2023-03-22T08:00:12.081Z,30.60
2023-03-22T08:02:40.843Z,26.92
2023-03-22T08:05:09.795Z,28.20
2023-03-22T08:07:38.579Z,28.20
2023-03-22T08:10:08.981Z,27.13
2023-03-22T08:12:37.459Z,24.88
2023-03-22T08:15:06.596Z,24.95
2023-03-22T08:17:35.029Z,27.13
2023-03-22T08:20:08.299Z,25.13
2023-03-22T08:22:37.087Z,28.13
2023-03-22T08:25:06.055Z,23.88
2023-03-22T08:27:36.233Z,24.25
2023-03-22T08:30:05.861Z,27.20
2023-03-22T08:32:34.752Z,24.35
2023-03-22T08:35:03.219Z,25.50
2023-03-22T08:37:31.649Z,26.33
2023-03-22T08:40:00.357Z,24.40
2023-03-22T08:42:28.790Z,23.98
2023-03-22T08:44:58.552Z,23.25
2023-03-22T08:47:27.039Z,24.35
2023-03-22T08:49:55.721Z,21.77
2023-03-22T08:52:24.117Z,21.40
2023-03-22T08:54:53.445Z,21.10
2023-03-22T08:57:23.900Z,22.17
2023-03-22T08:59:53.187Z,25.67
2023-03-22T09:02:23.038Z,22.92
2023-03-22T09:04:51.707Z,22.73
2023-03-22T09:07:20.379Z,20.10
2023-03-22T09:09:48.818Z,19.55
2023-03-22T09:12:17.938Z,22.48
2023-03-22T09:14:48.119Z,18.88
2023-03-22T09:17:20.154Z,18.85
2023-03-22T09:19:57.611Z,39.08
2023-03-22T09:22:32.033Z,25.20
2023-03-22T09:25:00.513Z,20.02
2023-03-22T09:27:29.063Z,17.63
2023-03-22T09:29:57.881Z,19.23
2023-03-22T09:32:26.404Z,22.45
2023-03-22T09:34:56.663Z,19.20
2023-03-22T09:37:30.199Z,23.63
2023-03-22T09:39:59.027Z,23.15
2023-03-22T09:42:37.700Z,22.02
2023-03-22T09:45:12.804Z,20.90
2023-03-22T09:47:46.639Z,21.20
2023-03-22T09:50:21.492Z,18.48
2023-03-22T09:52:50.693Z,18.98
2023-03-22T09:55:22.006Z,19.33
2023-03-22T09:57:59.977Z,21.95
2023-03-22T10:00:36.655Z,19.63
2023-03-22T10:03:15.655Z,21.55
2023-03-22T10:05:51.015Z,20.20
2023-03-22T10:08:31.186Z,19.85
2023-03-22T10:11:01.315Z,16.83
2023-03-22T10:13:36.126Z,18.67
2023-03-22T10:16:07.512Z,20.67
2023-03-22T10:18:38.895Z,16.77
2023-03-22T10:21:11.029Z,18.15
2023-03-22T10:23:44.133Z,18.27
2023-03-22T10:26:20.968Z,17.77
2023-03-22T10:28:56.583Z,15.68
2023-03-22T10:31:28.054Z,15.07
2023-03-22T10:34:06.164Z,17.48
2023-03-22T10:36:39.715Z,17.95
2023-03-22T10:39:16.873Z,19.70
2023-03-22T10:41:46.975Z,15.75
2023-03-22T10:44:19.805Z,18.02
2023-03-22T10:46:50.814Z,16.90
2023-03-22T10:49:26.316Z,15.40
2023-03-22T10:52:01.367Z,15.85
2023-03-22T10:54:30.129Z,16.90
2023-03-22T10:56:58.653Z,16.80
2023-03-22T10:59:48.381Z,15.85
2023-03-22T11:02:27.831Z,16.45
2023-03-22T11:04:58.979Z,17.25
2023-03-22T11:07:32.357Z,14.18
2023-03-22T11:10:12.959Z,16.10
2023-03-22T11:12:47.367Z,14.73
2023-03-22T11:15:26.437Z,13.65
2023-03-22T11:17:59.543Z,15.98
2023-03-22T11:20:29.926Z,14.32
2023-03-22T11:23:05.252Z,14.45
2023-03-22T11:25:36.854Z,13.18
2023-03-22T11:28:16.649Z,13.18
2023-03-22T11:31:00.663Z,14.40
2023-03-22T11:33:29.195Z,13.25
2023-03-22T11:35:59.242Z,14.15
2023-03-22T11:38:31.585Z,12.57
2023-03-22T11:41:03.166Z,15.48
2023-03-22T11:43:37.297Z,12.35
2023-03-22T11:46:08.806Z,13.82
2023-03-22T11:48:38.353Z,12.93
2023-03-22T11:51:12.592Z,12.38
2023-03-22T11:56:17.257Z,11.85
2023-03-22T11:58:59.764Z,12.18
2023-03-22T12:01:42.167Z,14.68
2023-03-22T12:04:16.534Z,15.20
2023-03-22T12:09:26.464Z,12.68
2023-03-22T12:11:57.462Z,11.57
2023-03-22T12:14:29.954Z,12.55
2023-03-22T12:17:02.648Z,12.13
2023-03-22T12:19:48.099Z,13.73
2023-03-22T12:22:19.504Z,14.82
2023-03-22T12:24:49.308Z,12.85
2023-03-22T12:27:21.890Z,12.85
2023-03-22T12:29:55.869Z,13.45
2023-03-22T12:32:27.986Z,15.43
2023-03-22T12:35:05.474Z,13.32
2023-03-22T12:37:49.013Z,10.95
2023-03-22T12:40:24.540Z,14.48
2023-03-22T12:43:03.795Z,16.05
2023-03-22T12:45:37.170Z,12.45
2023-03-22T12:48:13.330Z,11.30
2023-03-22T12:50:46.568Z,11.40
2023-03-22T12:53:17.702Z,16.97
2023-03-22T12:55:49.643Z,17.83
2023-03-22T12:58:22.142Z,12.45
2023-03-22T13:00:56.070Z,10.30
2023-03-22T13:03:29.119Z,12.57
2023-03-22T13:06:04.676Z,13.32
2023-03-22T13:09:05.121Z,12.93
2023-03-22T13:11:35.000Z,10.70
2023-03-22T13:14:03.709Z,12.13
2023-03-22T13:16:51.125Z,11.68
2023-03-22T13:19:30.122Z,10.13
2023-03-22T13:22:21.010Z,9.98
2023-03-22T13:25:07.319Z,13.57
2023-03-22T13:27:41.816Z,10.80
2023-03-22T13:30:18.254Z,9.90
2023-03-22T13:32:56.008Z,11.65
2023-03-22T13:35:28.323Z,13.00
2023-03-22T13:38:03.831Z,8.95
2023-03-22T13:40:37.904Z,10.73
2023-03-22T13:43:25.439Z,7.95
2023-03-22T13:46:44.099Z,11.60
2023-03-22T13:49:43.592Z,12.02
2023-03-22T13:52:25.365Z,8.10
2023-03-22T13:54:57.298Z,9.45
2023-03-22T13:57:50.848Z,8.63
2023-03-22T14:03:34.917Z,11.65
2023-03-22T14:06:10.860Z,8.98
2023-03-22T14:08:41.621Z,10.07
2023-03-22T14:11:35.411Z,11.68
2023-03-22T14:14:07.835Z,11.43
2023-03-22T14:16:41.552Z,16.90
2023-03-22T14:19:19.900Z,10.10
